createdAt,value
2023-03-06T00:00:42.870Z,99.90
2023-03-06T00:03:09.636Z,99.90
2023-03-06T00:05:36.369Z,99.90
2023-03-06T00:08:03.089Z,99.90
2023-03-06T00:10:30.378Z,99.90
2023-03-06T00:12:58.595Z,99.90
2023-03-06T00:15:26.608Z,99.90
2023-03-06T00:17:53.442Z,99.90
2023-03-06T00:20:20.922Z,99.90
2023-03-06T00:22:47.758Z,99.90
2023-03-06T00:25:16.210Z,99.90
2023-03-06T00:27:42.952Z,99.90
2023-03-06T00:30:13.965Z,99.90
2023-03-06T00:32:41.021Z,99.90
2023-03-06T00:35:07.856Z,99.90
2023-03-06T00:37:34.516Z,99.90
2023-03-06T00:40:01.162Z,99.90
2023-03-06T00:42:27.780Z,99.90
2023-03-06T00:44:54.368Z,99.90
2023-03-06T00:47:21.309Z,99.90
2023-03-06T00:49:48.046Z,99.90
2023-03-06T00:52:14.696Z,99.90
2023-03-06T00:54:41.356Z,99.90
2023-03-06T00:57:08.030Z,99.90
2023-03-06T00:59:34.840Z,99.90
2023-03-06T01:02:01.842Z,99.90
2023-03-06T01:04:28.436Z,99.90
2023-03-06T01:06:55.119Z,99.90
2023-03-06T01:09:21.956Z,99.90
2023-03-06T01:11:48.586Z,99.90
2023-03-06T01:14:15.297Z,99.90
2023-03-06T01:16:42.050Z,99.90
2023-03-06T01:19:08.772Z,99.90
2023-03-06T01:21:35.379Z,99.90
2023-03-06T01:24:02.012Z,99.90
2023-03-06T01:26:28.587Z,99.90
2023-03-06T01:28:57.398Z,99.90
2023-03-06T01:31:24.727Z,99.90
2023-03-06T01:33:51.542Z,99.90
2023-03-06T01:36:18.200Z,99.90
2023-03-06T01:38:44.854Z,99.90
2023-03-06T01:41:15.593Z,99.90
2023-03-06T01:43:44.219Z,99.90
2023-03-06T01:46:16.778Z,99.90
2023-03-06T01:48:44.630Z,99.90
2023-03-06T01:51:12.188Z,99.90
2023-03-06T01:53:39.727Z,99.90
2023-03-06T01:56:06.852Z,99.90
2023-03-06T01:58:33.834Z,99.90
2023-03-06T02:01:00.503Z,99.90
2023-03-06T02:03:28.436Z,99.90
2023-03-06T02:05:55.762Z,99.90
2023-03-06T02:08:23.243Z,99.90
2023-03-06T02:11:02.481Z,99.90
2023-03-06T02:13:29.745Z,99.90
2023-03-06T02:15:56.457Z,99.90
2023-03-06T02:18:23.173Z,99.90
2023-03-06T02:20:51.792Z,99.90
2023-03-06T02:23:27.154Z,99.90
2023-03-06T02:25:54.032Z,99.90
2023-03-06T02:28:22.237Z,99.90
2023-03-06T02:30:50.564Z,99.90
2023-03-06T02:33:18.643Z,99.90
2023-03-06T02:35:55.615Z,99.90
2023-03-06T02:38:25.003Z,99.90
2023-03-06T02:40:52.090Z,99.90
2023-03-06T02:43:21.116Z,99.90
2023-03-06T02:45:48.810Z,99.90
2023-03-06T02:48:16.480Z,99.90
2023-03-06T02:50:43.749Z,99.90
2023-03-06T02:53:11.173Z,99.90
2023-03-06T02:55:38.821Z,99.90
2023-03-06T02:58:05.526Z,99.90
2023-03-06T03:00:32.529Z,99.90
2023-03-06T03:02:59.674Z,99.90
2023-03-06T03:05:26.929Z,99.90
2023-03-06T03:07:53.678Z,99.90
2023-03-06T03:10:20.478Z,99.90
2023-03-06T03:12:47.279Z,99.90
2023-03-06T03:15:14.290Z,99.90
2023-03-06T03:17:41.141Z,99.90
2023-03-06T03:20:09.600Z,99.90
2023-03-06T03:22:36.430Z,99.90
2023-03-06T03:25:04.096Z,99.90
2023-03-06T03:27:30.711Z,99.90
2023-03-06T03:29:58.392Z,99.90
2023-03-06T03:32:25.220Z,99.90
2023-03-06T03:34:51.991Z,99.90
2023-03-06T03:37:18.821Z,99.90
2023-03-06T03:39:45.485Z,99.90
2023-03-06T03:42:12.121Z,99.90
2023-03-06T03:44:38.793Z,99.90
2023-03-06T03:47:05.702Z,99.90
2023-03-06T03:49:32.378Z,99.90
2023-03-06T03:51:59.119Z,99.90
2023-03-06T03:54:25.753Z,99.90
2023-03-06T03:56:52.782Z,99.90
2023-03-06T03:59:19.470Z,99.90
2023-03-06T04:01:46.174Z,99.90
2023-03-06T04:04:13.139Z,99.90
2023-03-06T04:06:39.869Z,99.90
2023-03-06T04:09:06.542Z,99.90
2023-03-06T04:11:33.445Z,99.90
2023-03-06T04:14:00.142Z,99.90
2023-03-06T04:16:26.823Z,99.90
2023-03-06T04:18:53.517Z,99.90
2023-03-06T04:21:20.096Z,99.90
2023-03-06T04:23:47.077Z,99.90
2023-03-06T04:26:13.812Z,99.90
2023-03-06T04:28:40.954Z,99.90
2023-03-06T04:31:07.617Z,99.90
2023-03-06T04:33:34.606Z,99.90
2023-03-06T04:36:01.526Z,99.90
2023-03-06T04:38:28.212Z,99.90
2023-03-06T04:40:54.903Z,99.90
2023-03-06T04:43:21.683Z,99.90
2023-03-06T04:45:48.565Z,99.90
2023-03-06T04:48:16.753Z,99.90
2023-03-06T04:50:43.587Z,99.90
2023-03-06T04:53:11.069Z,99.90
2023-03-06T04:55:37.786Z,99.90
2023-03-06T04:58:04.442Z,99.90
2023-03-06T05:00:31.698Z,99.90
2023-03-06T05:02:59.584Z,99.90
2023-03-06T05:05:26.535Z,99.90
2023-03-06T05:07:53.902Z,99.90
2023-03-06T05:10:20.760Z,99.90
2023-03-06T05:12:47.536Z,99.90
2023-03-06T05:15:14.285Z,99.90
2023-03-06T05:17:41.130Z,99.90
2023-03-06T05:20:09.723Z,99.90
2023-03-06T05:22:36.530Z,99.90
2023-03-06T05:25:04.863Z,99.90
2023-03-06T05:27:31.552Z,99.90
2023-03-06T05:29:58.353Z,99.90
2023-03-06T05:32:25.030Z,99.90
2023-03-06T05:34:51.889Z,99.90
2023-03-06T05:37:18.601Z,99.90
2023-03-06T05:39:45.424Z,99.90
2023-03-06T05:42:12.026Z,99.90
2023-03-06T05:44:38.682Z,99.90
2023-03-06T05:47:05.530Z,99.90
2023-03-06T05:49:32.822Z,99.90
2023-03-06T05:51:59.708Z,99.90
2023-03-06T05:54:26.708Z,99.90
2023-03-06T05:56:53.556Z,99.90
2023-03-06T05:59:20.420Z,99.90
2023-03-06T06:01:47.091Z,99.90
2023-03-06T06:04:13.692Z,99.90
2023-03-06T06:06:40.338Z,99.90
2023-03-06T06:09:07.035Z,99.90
2023-03-06T06:11:33.734Z,99.90
2023-03-06T06:14:00.369Z,99.90
2023-03-06T06:16:27.004Z,99.90
2023-03-06T06:18:53.677Z,99.90
2023-03-06T06:21:20.517Z,99.90
2023-03-06T06:23:47.151Z,99.90
2023-03-06T06:26:13.825Z,99.90
2023-03-06T06:28:40.487Z,99.90
2023-03-06T06:31:08.626Z,99.90
2023-03-06T06:33:35.351Z,99.90
2023-03-06T06:36:02.049Z,99.90
2023-03-06T06:38:28.667Z,99.90
2023-03-06T06:41:30.674Z,99.90
2023-03-06T06:43:41.935Z,99.90
2023-03-06T06:46:36.516Z,99.90
2023-03-06T06:48:55.467Z,99.90
2023-03-06T06:51:22.830Z,99.90
2023-03-06T06:53:53.438Z,99.90
2023-03-06T06:56:20.186Z,99.90
2023-03-06T06:58:46.892Z,99.90
2023-03-06T07:01:14.014Z,99.90
2023-03-06T07:03:40.954Z,99.90
2023-03-06T07:06:08.149Z,99.90
2023-03-06T07:08:35.065Z,99.90
2023-03-06T07:11:08.927Z,99.90
2023-03-06T07:13:35.663Z,99.90
2023-03-06T07:16:02.538Z,99.90
2023-03-06T07:18:29.435Z,99.90
2023-03-06T07:20:56.568Z,99.90
2023-03-06T07:23:23.762Z,99.90
2023-03-06T07:25:50.669Z,99.90
2023-03-06T07:28:18.671Z,99.90
2023-03-06T07:30:46.393Z,99.90
2023-03-06T07:33:13.379Z,99.90
2023-03-06T07:35:41.075Z,99.90
2023-03-06T07:38:07.815Z,99.90
2023-03-06T07:40:34.745Z,99.90
2023-03-06T07:43:13.216Z,99.90
2023-03-06T07:45:46.977Z,99.90
2023-03-06T07:48:14.726Z,99.90
2023-03-06T07:50:42.038Z,99.90
2023-03-06T07:53:10.803Z,99.90
2023-03-06T07:55:39.709Z,99.90
2023-03-06T07:58:06.457Z,99.90
2023-03-06T08:00:33.437Z,99.90
2023-03-06T08:03:00.217Z,99.90
2023-03-06T08:05:27.006Z,99.90
2023-03-06T08:07:53.627Z,99.90
2023-03-06T08:10:20.370Z,99.90
2023-03-06T08:12:47.082Z,99.90
2023-03-06T08:15:13.829Z,99.90
2023-03-06T08:17:40.491Z,99.90
2023-03-06T08:20:07.462Z,99.90
2023-03-06T08:22:34.354Z,99.90
2023-03-06T08:25:01.191Z,99.90
2023-03-06T08:27:28.113Z,99.90
2023-03-06T08:29:54.870Z,99.90
2023-03-06T08:32:21.623Z,99.90
2023-03-06T08:34:48.374Z,99.90
2023-03-06T08:37:15.244Z,99.90
2023-03-06T08:39:41.990Z,99.90
2023-03-06T08:42:09.398Z,99.90
2023-03-06T08:44:36.191Z,99.90
2023-03-06T08:47:03.464Z,99.90
2023-03-06T08:49:30.532Z,99.90
2023-03-06T08:51:57.203Z,99.90
2023-03-06T08:54:23.861Z,99.90
2023-03-06T08:56:50.585Z,99.90
2023-03-06T08:59:17.211Z,99.90
2023-03-06T09:01:45.174Z,99.90
2023-03-06T09:04:11.999Z,99.90
2023-03-06T09:06:40.384Z,99.90
2023-03-06T09:09:07.519Z,99.90
2023-03-06T09:11:34.360Z,99.90
2023-03-06T09:14:01.147Z,99.90
2023-03-06T09:16:27.993Z,99.90
2023-03-06T09:18:54.895Z,99.60
2023-03-06T09:21:22.034Z,99.20
2023-03-06T09:23:48.690Z,98.20
2023-03-06T09:26:15.566Z,97.60
2023-03-06T09:28:42.398Z,97.70
2023-03-06T09:31:13.043Z,98.20
2023-03-06T09:33:40.033Z,97.30
2023-03-06T09:36:07.472Z,97.80
2023-03-06T09:38:34.242Z,97.20
2023-03-06T09:41:19.707Z,96.50
2023-03-06T09:43:48.058Z,95.70
2023-03-06T09:46:30.299Z,95.70
2023-03-06T09:49:15.627Z,95.60
2023-03-06T09:51:51.922Z,94.70
2023-03-06T09:54:21.780Z,94.90
2023-03-06T09:56:50.439Z,93.70
2023-03-06T09:59:17.456Z,93.80
2023-03-06T10:01:46.801Z,94.20
2023-03-06T10:04:28.236Z,95.00
2023-03-06T10:07:01.315Z,95.10
2023-03-06T10:09:33.850Z,94.80
2023-03-06T10:12:06.689Z,94.90
2023-03-06T10:14:36.562Z,95.40
2023-03-06T10:17:04.187Z,95.50
2023-03-06T10:19:40.077Z,95.80
2023-03-06T10:22:12.903Z,95.80
2023-03-06T10:24:45.686Z,96.30
2023-03-06T10:27:21.734Z,96.40
2023-03-06T10:30:06.804Z,96.60
2023-03-06T10:32:58.360Z,97.00
2023-03-06T10:35:30.390Z,97.70
2023-03-06T10:38:15.617Z,98.20
2023-03-06T10:40:50.612Z,98.50
2023-03-06T10:43:17.308Z,99.80
2023-03-06T10:45:49.579Z,99.90
2023-03-06T10:48:20.856Z,99.90
2023-03-06T10:50:48.406Z,99.90
2023-03-06T10:53:22.898Z,99.90
2023-03-06T10:55:57.385Z,99.90
2023-03-06T10:58:25.771Z,99.90
2023-03-06T11:01:01.596Z,99.90
2023-03-06T11:03:28.571Z,99.90
2023-03-06T11:05:55.160Z,99.90
2023-03-06T11:08:22.531Z,99.90
2023-03-06T11:11:18.562Z,99.90
2023-03-06T11:13:56.846Z,99.90
2023-03-06T11:16:27.618Z,99.90
2023-03-06T11:18:59.148Z,99.90
2023-03-06T11:21:31.833Z,99.90
2023-03-06T11:24:14.654Z,99.90
2023-03-06T11:26:43.694Z,99.90
2023-03-06T11:29:21.779Z,99.90
2023-03-06T11:31:55.834Z,99.90
2023-03-06T11:34:41.287Z,99.90
2023-03-06T11:37:11.679Z,99.90
2023-03-06T11:39:41.555Z,99.90
2023-03-06T11:42:25.772Z,99.90
2023-03-06T11:45:11.111Z,99.90
2023-03-06T11:47:40.175Z,99.90
2023-03-06T11:50:13.114Z,99.90
2023-03-06T11:52:39.808Z,99.90
2023-03-06T11:55:08.682Z,99.90
2023-03-06T11:57:41.005Z,99.90
2023-03-06T12:00:12.607Z,99.90
2023-03-06T12:02:57.923Z,99.90
2023-03-06T12:05:28.714Z,99.90
2023-03-06T12:08:33.912Z,99.90
2023-03-06T12:11:06.518Z,99.90
2023-03-06T12:16:24.463Z,99.90
2023-03-06T12:18:51.189Z,99.90
2023-03-06T12:21:25.660Z,99.90
2023-03-06T12:24:04.715Z,99.90
2023-03-06T12:26:43.718Z,99.90
2023-03-06T12:29:29.042Z,99.80
2023-03-06T12:32:01.729Z,99.40
2023-03-06T12:34:28.408Z,99.00
2023-03-06T12:37:01.908Z,98.80
2023-03-06T12:39:45.869Z,98.20
2023-03-06T12:42:23.476Z,98.60
2023-03-06T12:45:03.026Z,98.30
2023-03-06T12:47:31.447Z,97.90
2023-03-06T12:50:01.087Z,99.40
2023-03-06T12:52:30.730Z,97.70
2023-03-06T12:54:59.690Z,98.20
2023-03-06T12:57:26.595Z,98.10
2023-03-06T12:59:53.603Z,97.70
2023-03-06T13:02:23.281Z,97.40
2023-03-06T13:05:00.287Z,96.80
2023-03-06T13:07:27.969Z,96.20
2023-03-06T13:10:01.023Z,95.90
2023-03-06T13:12:55.910Z,96.30
2023-03-06T13:15:34.832Z,96.60
2023-03-06T13:18:01.846Z,96.20
2023-03-06T13:20:43.996Z,95.40
2023-03-06T13:23:29.066Z,95.40
2023-03-06T13:26:08.344Z,95.10
2023-03-06T13:28:47.595Z,94.50
2023-03-06T13:31:26.541Z,94.60
2023-03-06T13:33:55.780Z,93.90
2023-03-06T13:36:25.286Z,94.50
2023-03-06T13:38:51.953Z,94.30
2023-03-06T13:41:24.988Z,94.80
2023-03-06T13:43:58.787Z,94.80
2023-03-06T13:46:26.246Z,94.90
2023-03-06T13:49:08.220Z,94.60
2023-03-06T13:51:58.010Z,94.50
2023-03-06T13:54:30.875Z,94.80
2023-03-06T13:57:16.134Z,94.50
2023-03-06T14:00:08.600Z,94.90
2023-03-06T14:02:54.925Z,94.90
2023-03-06T14:05:22.210Z,94.60
2023-03-06T14:08:02.387Z,94.20
2023-03-06T14:10:31.260Z,94.00
2023-03-06T14:13:00.651Z,93.90
2023-03-06T14:15:28.189Z,93.80
2023-03-06T14:17:58.064Z,93.60
2023-03-06T14:20:32.308Z,93.20
2023-03-06T14:23:17.658Z,93.40
2023-03-06T14:25:45.783Z,94.30
2023-03-06T14:28:25.869Z,95.10
2023-03-06T14:30:53.784Z,95.40
2023-03-06T14:33:30.008Z,95.60
2023-03-06T14:35:57.951Z,96.00
2023-03-06T14:38:32.051Z,96.00
2023-03-06T14:40:58.853Z,95.70
2023-03-06T14:43:29.337Z,95.80
2023-03-06T14:45:57.512Z,95.40
2023-03-06T14:48:25.941Z,95.00
2023-03-06T14:50:54.064Z,95.30
2023-03-06T14:53:32.084Z,95.10
2023-03-06T14:56:05.947Z,95.20
2023-03-06T14:58:35.981Z,94.80
2023-03-06T15:01:05.092Z,94.30
2023-03-06T15:03:49.241Z,94.40
2023-03-06T15:06:17.860Z,94.40
2023-03-06T15:08:46.034Z,93.80
2023-03-06T15:11:12.757Z,93.70
2023-03-06T15:13:39.465Z,93.20
2023-03-06T15:16:08.363Z,92.90
2023-03-06T15:18:38.999Z,92.90
2023-03-06T15:21:14.785Z,93.30
2023-03-06T15:23:42.478Z,92.90
2023-03-06T15:26:23.884Z,92.80
2023-03-06T15:29:03.420Z,92.60
2023-03-06T15:31:36.750Z,93.00
2023-03-06T15:34:06.635Z,92.40
2023-03-06T15:36:34.242Z,92.80
2023-03-06T15:39:01.154Z,93.10
2023-03-06T15:41:27.971Z,92.80
2023-03-06T15:43:54.766Z,92.90
2023-03-06T15:46:21.482Z,92.40
2023-03-06T15:49:01.112Z,92.30
2023-03-06T15:51:29.173Z,92.20
2023-03-06T15:54:09.797Z,92.10
2023-03-06T15:56:42.862Z,92.50
2023-03-06T15:59:36.191Z,92.50
2023-03-06T16:02:04.750Z,92.60
2023-03-06T16:04:31.564Z,92.60
2023-03-06T16:06:58.438Z,92.90
2023-03-06T16:09:25.230Z,92.70
2023-03-06T16:11:52.100Z,92.80
2023-03-06T16:14:21.281Z,93.10
2023-03-06T16:16:48.805Z,93.50
2023-03-06T16:19:26.090Z,93.90
2023-03-06T16:21:54.465Z,94.20
2023-03-06T16:24:21.184Z,94.30
2023-03-06T16:26:51.017Z,94.60
2023-03-06T16:29:22.065Z,94.50
2023-03-06T16:31:49.012Z,94.60
2023-03-06T16:34:16.040Z,94.60
2023-03-06T16:36:42.950Z,94.80
2023-03-06T16:39:13.653Z,94.70
2023-03-06T16:41:40.383Z,94.90
2023-03-06T16:44:10.858Z,95.10
2023-03-06T16:46:40.336Z,95.10
2023-03-06T16:49:07.268Z,95.30
2023-03-06T16:51:34.149Z,95.50
2023-03-06T16:54:00.939Z,95.70
2023-03-06T16:56:27.693Z,95.90
2023-03-06T16:58:54.480Z,96.10
2023-03-06T17:01:21.309Z,96.20
2023-03-06T17:03:48.354Z,96.20
2023-03-06T17:06:16.396Z,96.20
2023-03-06T17:08:43.296Z,96.60
2023-03-06T17:11:10.116Z,96.70
2023-03-06T17:13:36.938Z,96.60
2023-03-06T17:16:03.882Z,96.80
2023-03-06T17:18:30.682Z,96.80
2023-03-06T17:20:58.313Z,96.80
2023-03-06T17:23:29.613Z,96.70
2023-03-06T17:26:03.716Z,96.80
2023-03-06T17:28:30.443Z,96.90
2023-03-06T17:30:57.156Z,97.00
2023-03-06T17:33:23.951Z,97.00
2023-03-06T17:35:50.666Z,97.20
2023-03-06T17:38:17.452Z,97.30
2023-03-06T17:40:44.228Z,97.30
2023-03-06T17:43:11.058Z,97.40
2023-03-06T17:45:37.973Z,97.30
2023-03-06T17:48:04.829Z,97.40
2023-03-06T17:50:31.495Z,97.80
2023-03-06T17:52:58.213Z,97.50
2023-03-06T17:55:26.953Z,97.60
2023-03-06T17:57:53.635Z,97.70
2023-03-06T18:00:20.479Z,97.80
2023-03-06T18:02:47.179Z,98.00
2023-03-06T18:05:13.959Z,97.90
2023-03-06T18:07:40.678Z,97.90
2023-03-06T18:10:07.616Z,97.80
2023-03-06T18:12:34.283Z,98.30
2023-03-06T18:15:00.955Z,98.10
2023-03-06T18:17:27.588Z,98.00
2023-03-06T18:19:56.768Z,98.00
2023-03-06T18:22:23.528Z,98.20
2023-03-06T18:24:50.639Z,98.30
2023-03-06T18:27:20.795Z,98.30
2023-03-06T18:29:47.845Z,98.40
2023-03-06T18:32:14.769Z,98.80
2023-03-06T18:34:41.522Z,98.70
2023-03-06T18:37:08.255Z,98.80
2023-03-06T18:39:34.985Z,98.90
2023-03-06T18:42:01.822Z,99.10
2023-03-06T18:44:28.527Z,99.30
2023-03-06T18:46:55.227Z,99.20
2023-03-06T18:49:22.204Z,99.30
2023-03-06T18:51:52.120Z,99.40
2023-03-06T18:54:18.841Z,99.20
2023-03-06T18:56:45.592Z,99.30
2023-03-06T18:59:15.409Z,99.50
2023-03-06T19:01:46.395Z,99.60
2023-03-06T19:04:13.578Z,99.60
2023-03-06T19:06:40.833Z,99.70
2023-03-06T19:09:07.887Z,99.90
2023-03-06T19:11:34.629Z,99.90
2023-03-06T19:14:01.572Z,99.90
2023-03-06T19:16:29.333Z,99.90
2023-03-06T19:18:56.371Z,99.90
2023-03-06T19:21:24.235Z,99.90
2023-03-06T19:23:50.952Z,99.90
2023-03-06T19:26:21.115Z,99.90
2023-03-06T19:28:47.954Z,99.90
2023-03-06T19:31:16.043Z,99.90
2023-03-06T19:33:42.746Z,99.90
2023-03-06T19:36:10.366Z,99.90
2023-03-06T19:38:37.274Z,99.90
2023-03-06T19:41:04.130Z,99.90
2023-03-06T19:43:31.038Z,99.90
2023-03-06T19:45:57.947Z,99.90
2023-03-06T19:48:24.740Z,99.90
2023-03-06T19:50:51.491Z,99.90
2023-03-06T19:53:18.466Z,99.90
2023-03-06T19:55:45.156Z,99.90
2023-03-06T19:58:12.012Z,99.90
2023-03-06T20:00:38.961Z,99.90
2023-03-06T20:03:05.680Z,99.90
2023-03-06T20:05:32.355Z,99.90
2023-03-06T20:07:59.030Z,99.90
2023-03-06T20:10:25.739Z,99.90
2023-03-06T20:12:52.399Z,99.90
2023-03-06T20:15:21.790Z,99.90
2023-03-06T20:17:48.544Z,99.90
2023-03-06T20:20:15.409Z,99.90
2023-03-06T20:22:42.110Z,99.90
2023-03-06T20:25:09.014Z,99.90
2023-03-06T20:27:35.839Z,99.90
2023-03-06T20:30:02.763Z,99.90
2023-03-06T20:32:29.548Z,99.90
2023-03-06T20:34:56.211Z,99.90
2023-03-06T20:37:22.940Z,99.90
2023-03-06T20:39:49.710Z,99.90
2023-03-06T20:42:17.770Z,99.90
2023-03-06T20:44:44.398Z,99.90
2023-03-06T20:47:11.155Z,99.90
2023-03-06T20:49:38.194Z,99.90
2023-03-06T20:52:04.925Z,99.90
2023-03-06T20:54:31.777Z,99.90
2023-03-06T20:56:58.429Z,99.90
2023-03-06T20:59:25.143Z,99.90
2023-03-06T21:01:51.813Z,99.90
2023-03-06T21:04:18.579Z,99.90
2023-03-06T21:06:46.866Z,99.90
2023-03-06T21:09:15.841Z,99.90
2023-03-06T21:11:42.749Z,99.90
2023-03-06T21:14:09.617Z,99.90
2023-03-06T21:16:36.786Z,99.90
2023-03-06T21:19:03.604Z,99.90
2023-03-06T21:21:31.705Z,99.90
2023-03-06T21:23:58.519Z,99.90
2023-03-06T21:26:26.731Z,99.90
2023-03-06T21:28:53.872Z,99.90
2023-03-06T21:31:21.282Z,99.90
2023-03-06T21:33:48.857Z,99.90
2023-03-06T21:36:16.168Z,99.90
2023-03-06T21:38:42.825Z,99.90
2023-03-06T21:41:10.699Z,99.90
2023-03-06T21:43:37.417Z,99.90
2023-03-06T21:46:04.590Z,99.90
2023-03-06T21:48:31.642Z,99.90
2023-03-06T21:51:05.039Z,99.90
2023-03-06T21:53:31.677Z,99.90
2023-03-06T21:56:01.874Z,99.90
2023-03-06T21:58:29.202Z,99.90
2023-03-06T22:00:55.974Z,99.90
2023-03-06T22:03:22.731Z,99.90
2023-03-06T22:05:49.449Z,99.90
2023-03-06T22:08:16.073Z,99.90
2023-03-06T22:10:42.882Z,99.90
2023-03-06T22:13:09.635Z,99.90
2023-03-06T22:15:36.611Z,99.90
2023-03-06T22:18:03.325Z,99.90
2023-03-06T22:20:29.985Z,99.90
2023-03-06T22:22:56.679Z,99.90
2023-03-06T22:25:23.312Z,99.90
2023-03-06T22:27:50.012Z,99.90
2023-03-06T22:30:17.794Z,99.90
2023-03-06T22:32:44.541Z,99.90
2023-03-06T22:35:11.254Z,99.90
2023-03-06T22:37:38.007Z,99.90
2023-03-06T22:40:04.959Z,99.90
2023-03-06T22:42:31.588Z,99.90
2023-03-06T22:44:58.305Z,99.90
2023-03-06T22:47:25.067Z,99.90
2023-03-06T22:49:51.804Z,99.90
2023-03-06T22:52:19.656Z,99.90
2023-03-06T22:54:46.311Z,99.90
2023-03-06T22:57:13.358Z,99.90
2023-03-06T22:59:40.047Z,99.90
2023-03-06T23:02:06.727Z,99.90
2023-03-06T23:04:33.691Z,99.90
2023-03-06T23:07:00.433Z,99.90
2023-03-06T23:09:27.153Z,99.90
2023-03-06T23:11:53.909Z,99.90
2023-03-06T23:14:20.637Z,99.90
2023-03-06T23:16:47.314Z,99.90
2023-03-06T23:19:13.938Z,99.90
2023-03-06T23:21:40.598Z,99.90
2023-03-06T23:24:07.600Z,99.90
2023-03-06T23:26:34.528Z,99.90
2023-03-06T23:29:01.495Z,99.90
2023-03-06T23:31:29.000Z,99.90
2023-03-06T23:33:59.978Z,99.90
2023-03-06T23:36:27.137Z,99.90
2023-03-06T23:38:53.918Z,99.90
2023-03-06T23:41:21.497Z,99.90
2023-03-06T23:43:48.517Z,99.90
2023-03-06T23:46:15.542Z,99.90
2023-03-06T23:48:42.947Z,99.90
2023-03-06T23:51:17.089Z,99.90
2023-03-06T23:53:44.684Z,99.90
2023-03-06T23:56:11.949Z,99.90
2023-03-06T23:58:38.868Z,99.90
